Time;durP1;ratioP1;P1;durP2;ratioP2;P2;SDS_P1;SDS_P2;PMS_P1;PMS_P2;Temp;Humidity;BMP_temperature;BMP_pressure;BME280_temperature;BME280_humidity;BME280_pressure;Samples;Min_cycle;Max_cycle;Signal;HPM_P1;HPM_P2
2022/12/18 00:01:26;;;;;;;60.03;36.10;;;;;;;10.03;100.00;97582.34;5081455;28;20267;-76
2022/12/18 00:03:55;;;;;;;70.50;40.83;;;;;;;10.24;100.00;97615.28;5082460;28;20206;-77
2022/12/18 00:06:25;;;;;;;73.17;39.87;;;;;;;10.22;100.00;97625.66;5067213;28;20225;-77
2022/12/18 00:08:52;;;;;;;65.20;39.67;;;;;;;10.28;100.00;97633.22;5068962;28;20197;-81
2022/12/18 00:11:21;;;;;;;73.10;42.70;;;;;;;10.18;100.00;97633.63;5067290;28;20674;-79
2022/12/18 00:13:49;;;;;;;64.60;41.63;;;;;;;10.29;100.00;97634.06;5068258;28;20185;-77
2022/12/18 00:16:21;;;;;;;53.97;36.20;;;;;;;10.28;100.00;97638.41;5076956;28;20211;-76
2022/12/18 00:18:50;;;;;;;54.00;34.10;;;;;;;10.31;100.00;97633.13;5087410;28;20197;-79
2022/12/18 00:21:18;;;;;;;54.67;31.97;;;;;;;10.23;100.00;97596.31;5088659;28;20220;-77
2022/12/18 00:23:46;;;;;;;42.17;29.23;;;;;;;10.49;100.00;97637.66;5087108;28;21003;-75
2022/12/18 00:26:19;;;;;;;41.27;27.87;;;;;;;10.55;99.78;97627.06;5088909;28;20230;-75
2022/12/18 00:28:46;;;;;;;40.53;27.27;;;;;;;10.49;98.61;97641.97;5069118;28;20280;-74
2022/12/18 00:31:19;;;;;;;38.10;25.87;;;;;;;10.71;99.25;97647.22;5088188;28;20549;-75
2022/12/18 00:33:47;;;;;;;37.80;24.90;;;;;;;10.54;98.58;97660.78;5088430;28;20254;-80
2022/12/18 00:36:21;;;;;;;33.30;23.13;;;;;;;10.43;98.85;97640.44;5086827;28;20204;-75
2022/12/18 00:38:48;;;;;;;37.60;25.17;;;;;;;10.56;98.96;97661.59;5088225;28;20200;-75
2022/12/18 00:42:55;;;;;;;35.53;24.43;;;;;;;10.58;99.38;97665.81;5086497;28;20588;-76
2022/12/18 00:44:07;;;;;;;35.00;21.70;;;;;;;10.71;98.63;97674.00;5088099;28;20627;-75
2022/12/18 00:46:33;;;;;;;32.97;22.30;;;;;;;10.68;98.86;97676.69;5069779;28;20695;-79
2022/12/18 00:49:01;;;;;;;32.23;22.87;;;;;;;10.76;97.86;97685.00;5087262;28;20708;-79
2022/12/18 00:51:28;;;;;;;33.07;23.63;;;;;;;10.73;97.81;97667.00;5088157;28;20220;-79
2022/12/18 00:53:55;;;;;;;32.23;23.63;;;;;;;10.73;97.17;97684.28;5070852;28;20211;-78
2022/12/18 00:56:22;;;;;;;30.40;22.23;;;;;;;10.75;97.76;97679.91;5067837;28;20197;-82
2022/12/18 00:58:49;;;;;;;34.93;21.80;;;;;;;10.84;97.16;97670.03;5066520;28;20208;-82
2022/12/18 01:01:17;;;;;;;36.30;24.00;;;;;;;10.69;96.68;97669.75;5067687;28;20232;-81
2022/12/18 01:03:46;;;;;;;27.33;19.60;;;;;;;10.58;97.84;97670.13;5067831;28;20197;-77
2022/12/18 01:06:15;;;;;;;30.20;20.80;;;;;;;10.65;98.54;97666.44;5049248;28;20198;-76
2022/12/18 01:08:42;;;;;;;26.97;17.93;;;;;;;10.38;98.37;97631.16;5067834;28;20629;-78
2022/12/18 01:11:17;;;;;;;32.10;19.30;;;;;;;10.49;99.10;97671.31;5066157;28;20196;-76
2022/12/18 01:13:44;;;;;;;28.67;18.13;;;;;;;10.66;98.62;97678.47;5067762;28;20200;-76
2022/12/18 01:16:12;;;;;;;26.97;18.47;;;;;;;10.75;97.97;97667.78;5072505;28;20188;-77
2022/12/18 01:18:40;;;;;;;26.83;17.07;;;;;;;10.79;97.99;97669.38;5087694;28;20202;-78
2022/12/18 01:21:09;;;;;;;22.77;16.57;;;;;;;10.77;97.49;97663.41;5069256;28;20217;-76
2022/12/18 01:23:37;;;;;;;24.10;17.77;;;;;;;10.72;97.29;97665.31;5086580;28;20180;-79
2022/12/18 01:26:10;;;;;;;28.07;19.07;;;;;;;10.69;96.86;97667.16;5088164;28;20196;-77
2022/12/18 01:28:38;;;;;;;26.77;19.83;;;;;;;10.81;96.77;97670.16;5068251;28;20192;-79
2022/12/18 01:31:27;;;;;;;27.50;19.57;;;;;;;10.82;97.13;97681.38;5087547;28;20609;-77
2022/12/18 01:33:54;;;;;;;28.13;20.80;;;;;;;10.54;97.25;97666.81;5086753;28;20242;-78
2022/12/18 01:36:24;;;;;;;27.57;19.50;;;;;;;10.58;98.03;97667.56;5068648;28;20190;-79
2022/12/18 01:38:52;;;;;;;27.43;18.83;;;;;;;10.67;97.58;97656.88;5087442;28;20189;-80
2022/12/18 01:41:24;;;;;;;28.13;20.20;;;;;;;10.68;97.49;97668.06;5087069;28;20840;-80
2022/12/18 01:43:57;;;;;;;25.27;18.30;;;;;;;10.70;96.85;97667.09;5092286;28;20784;-79
2022/12/18 01:46:25;;;;;;;27.57;18.80;;;;;;;10.69;96.22;97656.81;5091049;28;20199;-79
2022/12/18 01:49:00;;;;;;;27.90;19.70;;;;;;;10.62;96.12;97663.94;5089518;28;20196;-79
2022/12/18 01:51:29;;;;;;;23.10;18.13;;;;;;;10.69;96.17;97659.41;5087083;28;20207;-79
2022/12/18 01:53:57;;;;;;;25.67;17.63;;;;;;;10.74;96.33;97663.50;5086660;28;20193;-79
2022/12/18 01:56:24;;;;;;;24.20;17.57;;;;;;;10.64;96.41;97663.00;5087563;28;20194;-77
2022/12/18 01:59:11;;;;;;;21.87;17.43;;;;;;;10.63;96.58;97671.66;5067934;28;20613;-79
2022/12/18 02:01:38;;;;;;;25.30;18.83;;;;;;;10.57;96.30;97652.94;5087811;28;20227;-80
2022/12/18 02:04:34;;;;;;;23.47;17.47;;;;;;;10.43;96.72;97673.25;5068513;28;20191;-80
2022/12/18 02:07:14;;;;;;;23.40;18.30;;;;;;;10.53;97.33;97687.59;5047756;28;20678;-79
2022/12/18 02:09:50;;;;;;;24.50;17.50;;;;;;;10.57;97.16;97691.78;5069325;28;20207;-82
2022/12/18 02:12:24;;;;;;;26.57;18.93;;;;;;;10.55;97.24;97683.22;5085671;28;20198;-78
2022/12/18 02:15:05;;;;;;;25.70;18.97;;;;;;;10.64;96.56;97682.88;5087107;28;20497;-81
2022/12/18 02:18:05;;;;;;;25.43;18.53;;;;;;;10.62;96.05;97682.06;5086479;28;20204;-79
2022/12/18 02:20:37;;;;;;;28.67;19.77;;;;;;;10.59;96.96;97669.25;5079660;28;20202;-76
2022/12/18 02:23:23;;;;;;;27.97;19.13;;;;;;;10.47;96.73;97669.66;5068977;28;20212;-79
2022/12/18 02:26:11;;;;;;;25.03;19.73;;;;;;;10.46;97.69;97670.56;5067687;28;20208;-76
2022/12/18 02:28:44;;;;;;;28.50;20.50;;;;;;;10.14;98.14;97638.03;5071856;28;20190;-76
2022/12/18 02:31:16;;;;;;;27.70;19.57;;;;;;;10.47;97.93;97680.03;5072690;28;20683;-76
2022/12/18 02:33:45;;;;;;;26.47;18.87;;;;;;;10.44;97.83;97669.78;5071055;28;20692;-78
2022/12/18 02:36:14;;;;;;;28.90;19.30;;;;;;;10.44;97.80;97681.00;5091404;28;20220;-76
2022/12/18 02:39:22;;;;;;;25.27;19.10;;;;;;;10.35;98.73;97677.88;5071042;28;20897;-77
2022/12/18 02:42:43;;;;;;;28.20;19.10;;;;;;;10.43;98.43;97686.22;5069910;28;20232;-78
2022/12/18 02:45:27;;;;;;;23.93;17.67;;;;;;;10.39;98.33;97679.44;5071966;28;20333;-76
2022/12/18 02:47:54;;;;;;;27.97;18.97;;;;;;;10.65;98.18;97689.75;5071951;28;20201;-77
2022/12/18 02:50:34;;;;;;;25.80;18.87;;;;;;;10.68;97.27;97693.94;5071627;28;20220;-76
2022/12/18 02:53:08;;;;;;;28.63;19.67;;;;;;;10.54;97.07;97673.75;5072226;28;20185;-78
2022/12/18 02:56:07;;;;;;;32.10;21.17;;;;;;;10.35;98.35;97686.47;5070657;28;20236;-78
2022/12/18 02:58:40;;;;;;;32.87;22.67;;;;;;;10.32;98.74;97693.53;5090274;28;20193;-79
2022/12/18 03:01:13;;;;;;;26.87;20.17;;;;;;;10.31;98.84;97695.25;5072097;28;20269;-78
2022/12/18 03:03:52;;;;;;;26.30;18.30;;;;;;;10.17;99.28;97683.69;5071142;28;20216;-76
2022/12/18 03:06:37;;;;;;;27.60;19.53;;;;;;;10.23;99.44;97691.22;5072276;28;20216;-76
2022/12/18 03:09:10;;;;;;;30.90;17.33;;;;;;;10.35;98.75;97696.84;5070491;28;20703;-77
2022/12/18 03:14:30;;;;;;;26.23;18.90;;;;;;;10.56;98.07;97710.78;5072038;28;20191;-77
2022/12/18 03:17:01;;;;;;;40.63;19.50;;;;;;;10.52;97.08;97693.66;5070641;28;20756;-79
2022/12/18 03:19:31;;;;;;;26.63;19.70;;;;;;;10.61;96.91;97690.75;5071999;28;20762;-76
2022/12/18 03:22:03;;;;;;;33.93;22.20;;;;;;;10.56;96.35;97710.78;5070288;28;20217;-77
2022/12/18 03:24:39;;;;;;;27.10;20.00;;;;;;;10.49;97.06;97710.16;5071663;28;20201;-76
2022/12/18 03:27:13;;;;;;;27.23;19.43;;;;;;;10.44;97.57;97711.22;5071602;28;20189;-76
2022/12/18 03:29:53;;;;;;;25.80;17.80;;;;;;;10.46;98.18;97717.19;5069950;28;20232;-75
2022/12/18 03:32:30;;;;;;;22.37;15.93;;;;;;;10.37;97.84;97725.25;5071757;28;20270;-75
2022/12/18 03:35:04;;;;;;;27.10;17.17;;;;;;;10.44;98.45;97730.19;5053403;28;20253;-77
2022/12/18 03:37:34;;;;;;;24.97;18.13;;;;;;;10.49;97.87;97735.19;5071342;28;20199;-76
2022/12/18 03:40:04;;;;;;;28.07;18.43;;;;;;;10.51;97.75;97733.38;5070844;28;20292;-78
2022/12/18 03:42:57;;;;;;;23.60;16.40;;;;;;;10.59;97.67;97739.19;5070407;28;20327;-75
2022/12/18 03:45:53;;;;;;;20.23;14.70;;;;;;;10.56;96.72;97741.88;5054571;28;20220;-75
2022/12/18 03:48:43;;;;;;;22.40;15.37;;;;;;;10.41;96.82;97742.38;5088397;28;20517;-76
2022/12/18 03:51:22;;;;;;;21.07;15.33;;;;;;;10.52;97.45;97746.31;5056562;28;20188;-75
2022/12/18 03:54:02;;;;;;;24.40;17.00;;;;;;;10.56;97.36;97744.44;5071544;28;20189;-76
2022/12/18 03:56:38;;;;;;;20.07;15.33;;;;;;;10.54;97.17;97749.69;5069772;28;20256;-75
2022/12/18 03:59:09;;;;;;;22.53;15.53;;;;;;;10.53;96.83;97752.34;5071173;28;20594;-76
2022/12/18 04:01:42;;;;;;;22.37;15.80;;;;;;;10.54;96.93;97743.66;5070434;28;20253;-76
2022/12/18 04:04:14;;;;;;;21.83;14.93;;;;;;;10.62;96.50;97747.69;5069630;28;20242;-77
2022/12/18 04:06:44;;;;;;;23.53;16.17;;;;;;;10.58;96.16;97756.47;5071047;28;20203;-76
2022/12/18 04:09:13;;;;;;;21.13;15.70;;;;;;;10.59;96.39;97759.91;5087648;28;20201;-76
2022/12/18 04:11:44;;;;;;;21.80;15.47;;;;;;;10.59;95.90;97762.50;5070802;28;20208;-76
2022/12/18 04:14:13;;;;;;;22.33;15.63;;;;;;;10.56;96.16;97760.84;5069590;28;20242;-75
2022/12/18 04:16:44;;;;;;;22.00;16.03;;;;;;;10.32;97.35;97769.44;5070718;28;20304;-78
2022/12/18 04:19:14;;;;;;;24.33;16.87;;;;;;;10.20;98.11;97754.28;5070629;28;20251;-76
2022/12/18 04:21:43;;;;;;;21.33;14.90;;;;;;;10.11;98.85;97766.69;5069280;28;20276;-75
2022/12/18 04:24:12;;;;;;;21.33;14.47;;;;;;;10.18;99.10;97765.63;5070637;28;20579;-74
2022/12/18 04:26:45;;;;;;;25.03;16.53;;;;;;;10.33;98.77;97770.28;5068799;28;20292;-74
2022/12/18 04:29:17;;;;;;;21.90;16.10;;;;;;;10.43;98.04;97772.50;5070655;28;20256;-74
2022/12/18 04:31:44;;;;;;;22.53;16.13;;;;;;;10.56;97.31;97773.78;5053187;28;20201;-80
2022/12/18 04:34:11;;;;;;;22.70;17.20;;;;;;;10.57;97.22;97777.25;5069984;28;20254;-80
2022/12/18 04:36:46;;;;;;;25.93;18.07;;;;;;;10.61;96.92;97779.66;5089064;28;20196;-81
2022/12/18 04:39:19;;;;;;;25.93;19.10;;;;;;;10.63;96.48;97795.16;5069217;28;20216;-79
2022/12/18 04:41:48;;;;;;;29.93;19.70;;;;;;;10.51;96.27;97780.84;5070164;28;20266;-77
2022/12/18 04:44:15;;;;;;;31.30;20.67;;;;;;;10.65;96.17;97804.53;5068837;28;20185;-75
2022/12/18 04:46:43;;;;;;;26.27;19.30;;;;;;;10.49;96.25;97805.97;5070443;28;20281;-75
2022/12/18 04:49:13;;;;;;;25.50;18.20;;;;;;;10.40;96.89;97818.38;5069328;28;20258;-76
2022/12/18 04:51:40;;;;;;;23.13;16.67;;;;;;;10.38;97.27;97821.03;5087329;28;20188;-76
2022/12/18 04:54:07;;;;;;;26.03;18.20;;;;;;;10.41;97.02;97823.50;5088312;28;20205;-75
2022/12/18 04:56:33;;;;;;;24.97;17.90;;;;;;;10.60;96.79;97826.31;5086610;28;20257;-78
2022/12/18 04:59:00;;;;;;;24.17;16.97;;;;;;;10.54;96.04;97842.06;5088253;28;20201;-76
2022/12/18 05:01:27;;;;;;;24.90;17.10;;;;;;;10.42;96.42;97832.97;5086387;28;20177;-76
2022/12/18 05:04:01;;;;;;;28.70;18.67;;;;;;;10.18;97.62;97846.66;5087824;28;20237;-77
2022/12/18 05:06:28;;;;;;;27.20;19.13;;;;;;;10.23;98.32;97847.38;5086985;28;20231;-77
2022/12/18 05:08:55;;;;;;;32.23;19.20;;;;;;;10.23;98.10;97857.75;5087074;28;20192;-75
2022/12/18 05:11:22;;;;;;;29.27;20.03;;;;;;;10.10;98.11;97847.81;5087631;28;20642;-81
2022/12/18 05:13:49;;;;;;;26.90;17.73;;;;;;;10.08;98.04;97854.72;5086719;28;20208;-80
2022/12/18 05:16:16;;;;;;;26.83;19.00;;;;;;;10.14;97.38;97858.00;5087683;28;20632;-82
2022/12/18 05:18:43;;;;;;;25.70;18.37;;;;;;;10.20;96.83;97857.00;5086086;28;20228;-79
2022/12/18 05:21:10;;;;;;;27.07;17.50;;;;;;;10.16;96.39;97865.75;5087635;28;20220;-77
2022/12/18 05:23:37;;;;;;;22.47;15.73;;;;;;;10.13;95.86;97868.44;5086222;28;20583;-75
2022/12/18 05:26:07;;;;;;;38.13;24.07;;;;;;;10.16;95.95;97861.41;5087212;28;20680;-76
2022/12/18 05:28:36;;;;;;;30.90;17.47;;;;;;;10.18;95.94;97867.38;5087647;28;20207;-75
2022/12/18 05:31:04;;;;;;;27.83;17.87;;;;;;;10.25;96.38;97870.63;5086406;28;20192;-74
2022/12/18 05:33:34;;;;;;;25.77;16.43;;;;;;;10.29;96.02;97880.00;5087741;28;20287;-75
2022/12/18 05:36:02;;;;;;;20.87;13.93;;;;;;;10.24;95.23;97876.72;5086424;28;20685;-77
2022/12/18 05:38:31;;;;;;;19.23;14.47;;;;;;;10.14;95.25;97872.72;5087805;28;20197;-79
2022/12/18 05:40:58;;;;;;;15.77;11.93;;;;;;;10.13;94.79;97871.88;5086378;28;20289;-76
2022/12/18 05:43:26;;;;;;;19.53;13.53;;;;;;;10.30;94.53;97879.13;5087060;28;20236;-76
2022/12/18 05:45:53;;;;;;;22.23;14.60;;;;;;;10.34;94.27;97878.13;5087332;28;20266;-77
2022/12/18 05:48:21;;;;;;;24.80;16.70;;;;;;;10.37;93.77;97886.63;5085889;28;20196;-79
2022/12/18 05:50:49;;;;;;;25.33;16.10;;;;;;;10.42;93.31;97884.75;5087517;28;20188;-78
2022/12/18 05:53:19;;;;;;;20.47;13.90;;;;;;;10.41;93.33;97892.53;5085838;28;20875;-77
2022/12/18 05:55:46;;;;;;;16.33;11.70;;;;;;;10.40;93.54;97888.28;5087403;28;20238;-76
2022/12/18 05:58:14;;;;;;;17.80;11.70;;;;;;;10.48;93.15;97894.06;5085957;28;20747;-76
2022/12/18 06:00:46;;;;;;;19.10;13.27;;;;;;;10.61;92.83;97896.19;5087217;28;20196;-80
2022/12/18 06:03:13;;;;;;;26.63;14.17;;;;;;;10.62;92.90;97904.81;5090254;28;20231;-80
2022/12/18 06:05:43;;;;;;;20.23;14.23;;;;;;;10.73;92.64;97910.53;5090317;28;20199;-76
2022/12/18 06:08:11;;;;;;;18.37;13.00;;;;;;;10.77;92.80;97911.25;5091229;28;20196;-75
2022/12/18 06:10:38;;;;;;;19.33;13.57;;;;;;;10.69;92.59;97902.88;5089779;28;20195;-75
2022/12/18 06:13:06;;;;;;;19.30;14.43;;;;;;;10.67;92.54;97925.41;5090999;28;20193;-79
2022/12/18 06:15:36;;;;;;;22.83;15.93;;;;;;;10.71;93.12;97924.41;5071639;28;20214;-75
2022/12/18 06:18:03;;;;;;;20.03;15.23;;;;;;;10.78;92.80;97928.50;5090938;28;20216;-75
2022/12/18 06:20:30;;;;;;;22.10;17.17;;;;;;;10.74;92.70;97929.50;5090586;28;20698;-77
2022/12/18 06:23:00;;;;;;;26.10;18.33;;;;;;;10.53;93.67;97918.09;5089942;28;20259;-78
2022/12/18 06:25:27;;;;;;;24.20;18.03;;;;;;;10.62;93.24;97938.50;5091440;28;20200;-77
2022/12/18 06:27:54;;;;;;;28.40;18.83;;;;;;;10.70;94.07;97935.66;5071086;28;20197;-77
2022/12/18 06:30:21;;;;;;;31.00;19.20;;;;;;;10.74;93.92;97953.66;5090875;28;20625;-81
2022/12/18 06:32:48;;;;;;;26.63;19.17;;;;;;;10.64;94.24;97954.84;5088949;28;20937;-80
2022/12/18 06:35:22;;;;;;;24.00;18.20;;;;;;;10.63;93.46;97961.75;5090936;28;20250;-82
2022/12/18 06:37:49;;;;;;;23.17;15.73;;;;;;;10.57;92.81;97954.19;5089961;28;20234;-81
2022/12/18 06:40:16;;;;;;;26.60;16.97;;;;;;;10.60;92.56;97959.28;5089421;28;20793;-80
2022/12/18 06:42:43;;;;;;;27.63;18.60;;;;;;;10.74;92.18;97982.16;5090353;28;20237;-79
2022/12/18 06:45:11;;;;;;;24.50;15.77;;;;;;;10.72;92.45;97989.13;5089041;28;20190;-77
2022/12/18 06:47:38;;;;;;;26.50;17.33;;;;;;;10.76;91.92;97993.31;5090663;28;20204;-81
2022/12/18 06:50:05;;;;;;;24.47;16.60;;;;;;;10.70;91.92;97996.09;5089166;28;20204;-78
2022/12/18 06:52:33;;;;;;;17.63;12.57;;;;;;;10.70;90.93;97983.13;5090797;28;20265;-79
2022/12/18 06:55:00;;;;;;;11.17;8.30;;;;;;;10.72;89.28;97993.44;5089475;28;20185;-80
2022/12/18 06:57:28;;;;;;;13.43;10.40;;;;;;;10.70;89.80;97998.69;5089405;28;20194;-82
2022/12/18 06:59:55;;;;;;;19.67;12.93;;;;;;;10.70;89.41;97993.50;5090376;28;20208;-81
2022/12/18 07:02:22;;;;;;;15.13;11.17;;;;;;;10.70;88.76;98009.03;5070228;28;20220;-79
2022/12/18 07:04:49;;;;;;;10.50;8.17;;;;;;;10.63;87.75;98016.16;5090321;28;20188;-78
2022/12/18 07:07:15;;;;;;;12.87;9.37;;;;;;;10.70;87.61;98016.81;5088745;28;20198;-78
2022/12/18 07:09:42;;;;;;;11.80;9.07;;;;;;;10.76;88.15;98015.81;5090604;28;20221;-80
2022/12/18 07:12:09;;;;;;;11.03;8.40;;;;;;;10.86;88.32;98019.78;5092181;28;20204;-75
2022/12/18 07:14:36;;;;;;;12.10;8.70;;;;;;;10.84;87.83;98021.59;5092837;28;20954;-76
2022/12/18 07:17:03;;;;;;;12.23;9.37;;;;;;;10.88;87.88;98034.38;5092405;28;20220;-75
2022/12/18 07:19:32;;;;;;;13.47;9.67;;;;;;;11.02;87.68;98040.00;5089065;28;20674;-76
2022/12/18 07:22:01;;;;;;;15.93;10.23;;;;;;;11.05;87.76;98039.88;5090373;28;20686;-79
2022/12/18 07:24:41;;;;;;;17.73;10.97;;;;;;;10.95;87.55;98033.31;5089373;28;20192;-77
2022/12/18 07:27:08;;;;;;;13.87;10.03;;;;;;;11.00;87.30;98035.75;5090056;28;20222;-79
2022/12/18 07:29:35;;;;;;;14.40;9.90;;;;;;;11.04;87.24;98040.81;5088762;28;20192;-80
2022/12/18 07:32:03;;;;;;;15.13;10.27;;;;;;;10.99;87.01;98040.09;5089301;28;20187;-77
2022/12/18 07:34:30;;;;;;;16.90;10.37;;;;;;;10.99;87.13;98032.31;5090282;28;20195;-79
2022/12/18 07:36:57;;;;;;;15.50;10.23;;;;;;;11.00;87.50;98044.38;5088719;28;20196;-80
2022/12/18 07:39:25;;;;;;;20.67;12.60;;;;;;;10.92;87.07;98033.38;5089744;28;20185;-77
2022/12/18 07:44:39;;;;;;;26.37;18.67;;;;;;;10.91;88.97;98038.63;5054631;28;20193;-78
2022/12/18 07:47:06;;;;;;;27.10;18.77;;;;;;;11.03;88.88;98044.28;5088971;28;20187;-79
2022/12/18 07:49:38;;;;;;;25.07;16.07;;;;;;;10.88;88.83;98013.66;5089133;28;20201;-80
2022/12/18 07:52:08;;;;;;;19.70;12.23;;;;;;;10.83;88.62;98035.44;5089683;28;20245;-81
2022/12/18 07:54:35;;;;;;;20.07;12.47;;;;;;;11.04;88.75;98039.94;5087562;28;20641;-78
2022/12/18 07:57:01;;;;;;;15.67;10.27;;;;;;;11.04;88.68;98050.31;5070785;28;20195;-80
2022/12/18 07:59:28;;;;;;;17.63;12.27;;;;;;;11.04;88.48;98055.50;5063572;28;20677;-80
2022/12/18 08:01:55;;;;;;;14.23;9.50;;;;;;;10.98;87.73;98059.13;5078641;28;20194;-80
2022/12/18 08:04:22;;;;;;;13.13;8.67;;;;;;;10.93;85.29;98063.59;5051007;28;20281;-79
2022/12/18 08:06:50;;;;;;;6.27;4.60;;;;;;;10.93;83.38;98057.56;5060695;28;20231;-77
2022/12/18 08:09:17;;;;;;;10.80;7.30;;;;;;;10.78;82.71;98052.88;5086925;28;20195;-81
2022/12/18 08:11:45;;;;;;;9.70;6.70;;;;;;;10.77;83.63;98056.34;5087928;28;20186;-79
2022/12/18 08:14:11;;;;;;;7.03;5.90;;;;;;;10.79;83.54;98060.59;5088944;28;20185;-79
2022/12/18 08:16:39;;;;;;;6.53;5.37;;;;;;;10.80;83.48;98066.63;5086987;28;20201;-80
2022/12/18 08:19:06;;;;;;;7.33;5.23;;;;;;;10.86;83.79;98071.63;5088618;28;20181;-80
2022/12/18 08:21:33;;;;;;;7.77;5.47;;;;;;;10.93;83.62;98070.53;5086895;28;20203;-77
2022/12/18 08:24:01;;;;;;;6.93;5.20;;;;;;;10.84;83.27;98076.00;5088031;28;20273;-77
2022/12/18 08:26:30;;;;;;;7.47;5.10;;;;;;;10.62;82.72;98068.88;5087152;28;20756;-78
2022/12/18 08:28:58;;;;;;;6.63;5.73;;;;;;;10.64;83.14;98071.41;5087861;28;20198;-78
2022/12/18 08:31:27;;;;;;;8.80;6.50;;;;;;;10.61;83.56;98074.91;5088339;28;20195;-78
2022/12/18 08:33:55;;;;;;;8.60;5.47;;;;;;;10.57;83.98;98070.72;5086793;28;20197;-76
2022/12/18 08:36:23;;;;;;;10.77;7.30;;;;;;;10.56;84.38;98063.00;5088167;28;20198;-75
2022/12/18 08:38:51;;;;;;;8.90;6.67;;;;;;;10.87;83.34;98079.34;5085853;28;20197;-75
2022/12/18 08:41:20;;;;;;;6.00;4.70;;;;;;;10.77;82.09;98077.06;5086547;28;20253;-78
2022/12/18 08:46:41;;;;;;;8.33;6.83;;;;;;;10.81;83.34;98076.94;5066453;28;20676;-77
2022/12/18 08:49:09;;;;;;;14.03;9.37;;;;;;;10.81;82.49;98073.50;5087393;28;20200;-78
2022/12/18 08:51:37;;;;;;;12.83;8.70;;;;;;;10.82;83.31;98062.25;5086824;28;20188;-79
2022/12/18 08:54:05;;;;;;;16.23;10.03;;;;;;;10.93;83.44;98073.13;5088137;28;20189;-77
2022/12/18 08:56:33;;;;;;;16.23;9.80;;;;;;;10.73;84.23;98045.22;5086555;28;20211;-77
2022/12/18 08:59:00;;;;;;;11.97;7.40;;;;;;;10.67;83.24;98055.78;5069642;28;20197;-78
2022/12/18 09:01:27;;;;;;;7.50;5.80;;;;;;;10.75;82.86;98076.28;5086967;28;20199;-77
2022/12/18 09:03:54;;;;;;;13.90;9.60;;;;;;;10.70;81.56;98097.13;5069833;28;20423;-77
2022/12/18 09:06:22;;;;;;;12.83;8.77;;;;;;;10.67;81.61;98096.38;5086963;28;20191;-78
2022/12/18 09:08:49;;;;;;;10.23;7.97;;;;;;;10.89;81.25;98094.84;5068523;28;20197;-76
2022/12/18 09:11:29;;;;;;;11.07;7.60;;;;;;;10.90;78.75;98099.13;5085149;28;20630;-80
2022/12/18 09:14:25;;;;;;;14.10;7.60;;;;;;;10.74;78.90;98066.81;5072763;28;20195;-79
2022/12/18 09:16:52;;;;;;;11.93;8.30;;;;;;;11.05;77.66;98103.84;5067071;28;20193;-78
2022/12/18 09:19:19;;;;;;;10.10;7.10;;;;;;;11.07;77.65;98095.13;5085292;28;20211;-78
2022/12/18 09:21:46;;;;;;;13.30;9.40;;;;;;;10.96;77.38;98097.22;5086420;28;20701;-77
2022/12/18 09:24:15;;;;;;;13.47;9.17;;;;;;;10.89;77.58;98108.66;5070492;28;20217;-78
2022/12/18 09:26:42;;;;;;;12.07;7.93;;;;;;;10.79;76.72;98107.22;5076974;28;20702;-78
2022/12/18 09:29:15;;;;;;;15.90;8.07;;;;;;;10.74;76.65;98100.50;5087746;28;20584;-77
2022/12/18 09:31:44;;;;;;;14.63;9.10;;;;;;;10.87;76.99;98114.75;5086045;28;20187;-78
2022/12/18 09:34:11;;;;;;;12.30;7.63;;;;;;;11.03;76.02;98106.47;5087869;28;20189;-79
2022/12/18 09:36:39;;;;;;;12.33;7.87;;;;;;;10.77;74.99;98114.19;5086352;28;20286;-79
2022/12/18 09:39:06;;;;;;;16.70;8.87;;;;;;;10.77;75.37;98101.25;5087363;28;20186;-76
2022/12/18 09:41:42;;;;;;;13.73;8.20;;;;;;;10.92;75.69;98111.13;5086804;28;20278;-79
2022/12/18 09:44:31;;;;;;;15.43;7.90;;;;;;;10.78;75.30;98104.69;5086198;28;20718;-77
2022/12/18 09:47:16;;;;;;;11.40;7.57;;;;;;;10.78;75.49;98109.88;5087663;28;20182;-79
2022/12/18 09:49:45;;;;;;;19.30;8.83;;;;;;;10.76;76.07;98109.06;5086369;28;20193;-79
2022/12/18 09:52:25;;;;;;;12.03;6.90;;;;;;;10.79;75.33;98112.41;5088788;28;20200;-78
2022/12/18 09:55:05;;;;;;;9.83;6.77;;;;;;;10.71;75.07;98109.19;5086536;28;20671;-79
2022/12/18 09:57:37;;;;;;;16.10;7.07;;;;;;;10.75;75.47;98100.44;5084869;28;20694;-81
2022/12/18 10:00:21;;;;;;;14.50;7.40;;;;;;;10.86;74.50;98092.34;5087606;28;20850;-77
2022/12/18 10:02:56;;;;;;;10.73;5.93;;;;;;;10.81;74.69;98110.63;5085646;28;20196;-76
2022/12/18 10:05:50;;;;;;;12.10;6.03;;;;;;;10.79;73.59;98108.97;5086611;28;20193;-78
2022/12/18 10:08:39;;;;;;;10.10;6.23;;;;;;;10.76;73.90;98112.47;5067523;28;20235;-77
2022/12/18 10:11:34;;;;;;;9.43;6.40;;;;;;;10.73;74.25;98112.59;5065687;28;20198;-76
2022/12/18 10:14:12;;;;;;;9.67;6.13;;;;;;;10.55;73.42;98107.94;5066823;28;20193;-81
2022/12/18 10:16:53;;;;;;;11.73;6.10;;;;;;;10.59;74.33;98117.31;5066580;28;20213;-80
2022/12/18 10:19:23;;;;;;;9.47;6.03;;;;;;;10.53;74.10;98125.28;5065001;28;20196;-77
2022/12/18 10:22:21;;;;;;;11.47;6.27;;;;;;;10.72;74.96;98122.97;5066936;28;20224;-72
2022/12/18 10:24:59;;;;;;;10.83;5.77;;;;;;;10.74;74.17;98119.47;5065939;28;20261;-81
2022/12/18 10:27:27;;;;;;;36.03;26.43;;;;;;;10.81;74.95;98121.00;5065462;28;20201;-81
2022/12/18 10:29:54;;;;;;;114.70;78.47;;;;;;;10.70;73.73;98123.03;5066361;28;20199;-80
2022/12/18 10:32:27;;;;;;;868.77;579.37;;;;;;;10.82;74.29;98125.25;5065112;28;20271;-81
2022/12/18 10:34:57;;;;;;;1025.27;641.97;;;;;;;10.94;74.56;98122.28;5066667;28;20191;-78
2022/12/18 10:37:29;;;;;;;1731.83;902.03;;;;;;;11.06;74.67;98127.13;5065341;28;20201;-82
2022/12/18 10:40:15;;;;;;;862.67;537.50;;;;;;;11.15;73.40;98120.81;5048001;28;20208;-78
2022/12/18 10:43:11;;;;;;;1168.47;729.60;;;;;;;11.22;74.74;98120.59;5066347;28;20194;-78
2022/12/18 10:45:39;;;;;;;702.87;461.23;;;;;;;11.25;72.95;98112.69;5065274;28;20650;-81
2022/12/18 10:48:19;;;;;;;992.37;636.97;;;;;;;11.34;70.99;98119.34;5068119;28;20287;-80
2022/12/18 10:50:49;;;;;;;253.00;129.37;;;;;;;11.23;70.83;98119.66;5050539;28;20216;-83
2022/12/18 10:53:37;;;;;;;704.50;421.33;;;;;;;11.21;72.06;98123.22;5068737;28;20633;-81
2022/12/18 10:56:06;;;;;;;1159.03;711.90;;;;;;;11.26;71.81;98111.81;5081521;28;20185;-80
2022/12/18 10:58:35;;;;;;;130.97;93.77;;;;;;;11.53;73.09;98129.97;5087188;28;20718;-77
2022/12/18 11:01:07;;;;;;;14.87;8.63;;;;;;;11.29;70.21;98124.66;5089770;28;20200;-80
2022/12/18 11:03:39;;;;;;;14.10;6.10;;;;;;;11.02;70.16;98119.50;5064971;28;20244;-79
2022/12/18 11:06:14;;;;;;;8.07;5.90;;;;;;;11.04;70.94;98138.44;5069366;28;20207;-79
2022/12/18 11:08:57;;;;;;;9.10;6.00;;;;;;;11.03;71.58;98137.59;5069400;28;20204;-83
2022/12/18 11:11:25;;;;;;;9.37;6.37;;;;;;;10.99;71.79;98119.56;5068542;28;20192;-81
2022/12/18 11:14:18;;;;;;;10.87;6.07;;;;;;;10.82;71.92;98133.03;5069665;28;20186;-81
2022/12/18 11:16:50;;;;;;;11.67;7.00;;;;;;;10.83;73.42;98142.50;5057946;28;20552;-84
2022/12/18 11:19:40;;;;;;;11.13;7.57;;;;;;;10.77;73.59;98142.69;5068583;28;20197;-83
2022/12/18 11:22:26;;;;;;;10.13;6.63;;;;;;;10.42;74.64;98143.69;5060512;28;20206;-83
2022/12/18 11:25:03;;;;;;;10.07;6.73;;;;;;;10.50;73.64;98149.50;5088080;28;20227;-82
2022/12/18 11:28:41;;;;;;;10.43;6.47;;;;;;;10.46;74.73;98142.72;5089392;28;20177;-79
2022/12/18 11:31:27;;;;;;;12.53;6.90;;;;;;;10.37;74.28;98149.88;5089278;28;20242;-83
2022/12/18 11:34:22;;;;;;;9.37;5.67;;;;;;;10.17;74.75;98134.88;5088773;28;20203;-81
2022/12/18 11:37:00;;;;;;;13.77;7.77;;;;;;;10.27;75.13;98159.63;5088453;28;20259;-83
2022/12/18 11:39:38;;;;;;;10.97;6.63;;;;;;;10.08;75.43;98163.56;5083806;28;20199;-84
2022/12/18 11:42:19;;;;;;;14.53;9.10;;;;;;;10.10;76.24;98159.22;5067085;28;20224;-82
2022/12/18 11:44:49;;;;;;;13.23;8.97;;;;;;;10.05;76.22;98162.78;5069002;28;20722;-81
2022/12/18 11:47:38;;;;;;;20.47;9.80;;;;;;;9.77;76.84;98111.75;5049400;28;20266;-81
2022/12/18 11:50:14;;;;;;;14.27;9.57;;;;;;;10.06;77.02;98148.94;5067709;28;20240;-80
2022/12/18 11:52:42;;;;;;;11.50;8.50;;;;;;;9.94;77.57;98113.91;5068574;28;20315;-82